sensor_id;sensor_type;location;lat;lon;timestamp;temperature;humidity
22288;DHT22;11312;51.464;6.968;2022-08-01T00:01:22;19.70;99.90
22288;DHT22;11312;51.464;6.968;2022-08-01T00:03:48;19.60;99.90
22288;DHT22;11312;51.464;6.968;2022-08-01T00:06:13;19.70;99.90
22288;DHT22;11312;51.464;6.968;2022-08-01T00:08:39;19.70;99.90
22288;DHT22;11312;51.464;6.968;2022-08-01T00:11:05;19.70;99.90
22288;DHT22;11312;51.464;6.968;2022-08-01T00:13:30;19.70;99.90
22288;DHT22;11312;51.464;6.968;2022-08-01T00:15:56;19.70;99.90
22288;DHT22;11312;51.464;6.968;2022-08-01T00:18:22;19.70;99.90
22288;DHT22;11312;51.464;6.968;2022-08-01T00:20:47;19.60;99.90
22288;DHT22;11312;51.464;6.968;2022-08-01T00:23:13;19.70;99.90
22288;DHT22;11312;51.464;6.968;2022-08-01T00:25:39;19.70;99.90
22288;DHT22;11312;51.464;6.968;2022-08-01T00:28:04;19.70;99.90
22288;DHT22;11312;51.464;6.968;2022-08-01T00:30:34;19.70;99.90
22288;DHT22;11312;51.464;6.968;2022-08-01T00:33:00;19.70;99.90
22288;DHT22;11312;51.464;6.968;2022-08-01T00:35:26;19.60;99.90
22288;DHT22;11312;51.464;6.968;2022-08-01T00:37:52;19.60;99.90
22288;DHT22;11312;51.464;6.968;2022-08-01T00:40:18;19.50;99.90
22288;DHT22;11312;51.464;6.968;2022-08-01T00:42:43;19.60;99.90
22288;DHT22;11312;51.464;6.968;2022-08-01T00:45:10;19.60;99.90
22288;DHT22;11312;51.464;6.968;2022-08-01T00:47:36;19.50;99.90
22288;DHT22;11312;51.464;6.968;2022-08-01T00:50:06;19.60;99.90
22288;DHT22;11312;51.464;6.968;2022-08-01T00:52:33;19.60;99.90
22288;DHT22;11312;51.464;6.968;2022-08-01T00:54:59;19.60;99.90
22288;DHT22;11312;51.464;6.968;2022-08-01T00:57:25;19.50;99.90
22288;DHT22;11312;51.464;6.968;2022-08-01T00:59:52;19.50;99.90
22288;DHT22;11312;51.464;6.968;2022-08-01T01:02:17;19.60;99.90
22288;DHT22;11312;51.464;6.968;2022-08-01T01:04:43;19.50;99.90
22288;DHT22;11312;51.464;6.968;2022-08-01T01:10:21;19.50;99.90
22288;DHT22;11312;51.464;6.968;2022-08-01T01:12:55;19.50;99.90
22288;DHT22;11312;51.464;6.968;2022-08-01T01:15:44;19.40;99.90
22288;DHT22;11312;51.464;6.968;2022-08-01T01:18:17;19.30;99.90
22288;DHT22;11312;51.464;6.968;2022-08-01T01:20:45;19.40;99.90
22288;DHT22;11312;51.464;6.968;2022-08-01T01:34:28;19.40;99.90
22288;DHT22;11312;51.464;6.968;2022-08-01T01:36:54;19.30;99.90
22288;DHT22;11312;51.464;6.968;2022-08-01T01:39:24;19.30;99.90
22288;DHT22;11312;51.464;6.968;2022-08-01T01:41:52;19.40;99.90
22288;DHT22;11312;51.464;6.968;2022-08-01T01:44:19;19.50;99.90
22288;DHT22;11312;51.464;6.968;2022-08-01T01:46:45;19.50;99.90
22288;DHT22;11312;51.464;6.968;2022-08-01T01:49:11;19.50;99.90
22288;DHT22;11312;51.464;6.968;2022-08-01T01:51:38;19.30;99.90
22288;DHT22;11312;51.464;6.968;2022-08-01T01:54:06;19.40;99.90
22288;DHT22;11312;51.464;6.968;2022-08-01T01:56:35;19.50;99.90
22288;DHT22;11312;51.464;6.968;2022-08-01T01:59:02;19.40;99.90
22288;DHT22;11312;51.464;6.968;2022-08-01T02:01:31;19.40;99.90
22288;DHT22;11312;51.464;6.968;2022-08-01T02:03:59;19.40;99.90
22288;DHT22;11312;51.464;6.968;2022-08-01T02:06:29;19.40;99.90
22288;DHT22;11312;51.464;6.968;2022-08-01T02:08:55;19.50;99.90
22288;DHT22;11312;51.464;6.968;2022-08-01T02:11:22;19.50;99.90
22288;DHT22;11312;51.464;6.968;2022-08-01T02:14:06;19.30;99.90
22288;DHT22;11312;51.464;6.968;2022-08-01T02:16:37;19.30;99.90
22288;DHT22;11312;51.464;6.968;2022-08-01T02:19:05;19.30;99.90
22288;DHT22;11312;51.464;6.968;2022-08-01T02:21:37;19.30;99.90
22288;DHT22;11312;51.464;6.968;2022-08-01T02:24:14;19.40;99.90
22288;DHT22;11312;51.464;6.968;2022-08-01T02:26:47;19.20;99.90
22288;DHT22;11312;51.464;6.968;2022-08-01T02:29:19;19.20;99.90
22288;DHT22;11312;51.464;6.968;2022-08-01T02:31:48;19.30;99.90
22288;DHT22;11312;51.464;6.968;2022-08-01T02:34:17;19.30;99.90
22288;DHT22;11312;51.464;6.968;2022-08-01T02:36:45;19.30;99.90
22288;DHT22;11312;51.464;6.968;2022-08-01T02:39:13;19.30;99.90
22288;DHT22;11312;51.464;6.968;2022-08-01T02:41:42;19.30;99.90
22288;DHT22;11312;51.464;6.968;2022-08-01T02:44:11;19.30;99.90
22288;DHT22;11312;51.464;6.968;2022-08-01T02:46:52;19.40;99.90
22288;DHT22;11312;51.464;6.968;2022-08-01T02:49:20;19.30;99.90
22288;DHT22;11312;51.464;6.968;2022-08-01T02:51:49;19.30;99.90
22288;DHT22;11312;51.464;6.968;2022-08-01T02:54:17;19.30;99.90
22288;DHT22;11312;51.464;6.968;2022-08-01T02:56:44;19.30;99.90
22288;DHT22;11312;51.464;6.968;2022-08-01T02:59:16;19.30;99.90
22288;DHT22;11312;51.464;6.968;2022-08-01T03:01:44;19.30;99.90
22288;DHT22;11312;51.464;6.968;2022-08-01T03:04:11;19.30;99.90
22288;DHT22;11312;51.464;6.968;2022-08-01T03:06:38;19.40;99.90
22288;DHT22;11312;51.464;6.968;2022-08-01T03:09:05;19.30;99.90
22288;DHT22;11312;51.464;6.968;2022-08-01T03:11:32;19.30;99.90
22288;DHT22;11312;51.464;6.968;2022-08-01T03:14:02;19.40;99.90
22288;DHT22;11312;51.464;6.968;2022-08-01T03:16:31;19.40;99.90
22288;DHT22;11312;51.464;6.968;2022-08-01T03:19:00;19.40;99.90
22288;DHT22;11312;51.464;6.968;2022-08-01T03:21:28;19.40;99.90
22288;DHT22;11312;51.464;6.968;2022-08-01T03:23:56;19.40;99.90
22288;DHT22;11312;51.464;6.968;2022-08-01T03:26:31;19.40;99.90
22288;DHT22;11312;51.464;6.968;2022-08-01T03:29:01;19.40;99.90
22288;DHT22;11312;51.464;6.968;2022-08-01T03:31:28;19.40;99.90
22288;DHT22;11312;51.464;6.968;2022-08-01T03:33:54;19.40;99.90
22288;DHT22;11312;51.464;6.968;2022-08-01T03:36:25;19.40;99.90
22288;DHT22;11312;51.464;6.968;2022-08-01T03:38:52;19.40;99.90
22288;DHT22;11312;51.464;6.968;2022-08-01T03:41:21;19.40;99.90
22288;DHT22;11312;51.464;6.968;2022-08-01T03:43:56;19.40;99.90
22288;DHT22;11312;51.464;6.968;2022-08-01T03:46:32;19.40;99.90
22288;DHT22;11312;51.464;6.968;2022-08-01T03:49:00;19.40;99.90
22288;DHT22;11312;51.464;6.968;2022-08-01T03:51:29;19.40;99.90
22288;DHT22;11312;51.464;6.968;2022-08-01T03:53:58;19.40;99.90
22288;DHT22;11312;51.464;6.968;2022-08-01T03:56:25;19.40;99.90
22288;DHT22;11312;51.464;6.968;2022-08-01T03:58:52;19.40;99.90
22288;DHT22;11312;51.464;6.968;2022-08-01T04:01:18;19.40;99.90
22288;DHT22;11312;51.464;6.968;2022-08-01T04:03:44;19.40;99.90
22288;DHT22;11312;51.464;6.968;2022-08-01T04:06:10;19.40;99.90
22288;DHT22;11312;51.464;6.968;2022-08-01T04:08:40;19.30;99.90
22288;DHT22;11312;51.464;6.968;2022-08-01T04:11:08;19.30;99.90
22288;DHT22;11312;51.464;6.968;2022-08-01T04:13:34;19.30;99.90
22288;DHT22;11312;51.464;6.968;2022-08-01T04:15:59;19.30;99.90
22288;DHT22;11312;51.464;6.968;2022-08-01T04:18:25;19.30;99.90
22288;DHT22;11312;51.464;6.968;2022-08-01T04:20:51;19.30;99.90
22288;DHT22;11312;51.464;6.968;2022-08-01T04:23:20;19.30;99.90
22288;DHT22;11312;51.464;6.968;2022-08-01T04:25:48;19.30;99.90
22288;DHT22;11312;51.464;6.968;2022-08-01T04:28:16;19.30;99.90
22288;DHT22;11312;51.464;6.968;2022-08-01T04:30:43;19.40;99.90
22288;DHT22;11312;51.464;6.968;2022-08-01T04:33:14;19.40;99.90
22288;DHT22;11312;51.464;6.968;2022-08-01T04:35:44;19.40;99.90
22288;DHT22;11312;51.464;6.968;2022-08-01T04:38:17;19.40;99.90
22288;DHT22;11312;51.464;6.968;2022-08-01T04:40:45;19.50;99.90
22288;DHT22;11312;51.464;6.968;2022-08-01T04:43:11;19.50;99.90
22288;DHT22;11312;51.464;6.968;2022-08-01T04:45:38;19.50;99.90
22288;DHT22;11312;51.464;6.968;2022-08-01T04:48:05;19.50;99.90
22288;DHT22;11312;51.464;6.968;2022-08-01T04:50:35;19.50;99.90
22288;DHT22;11312;51.464;6.968;2022-08-01T04:53:01;19.50;99.90
22288;DHT22;11312;51.464;6.968;2022-08-01T04:55:28;19.50;99.90
22288;DHT22;11312;51.464;6.968;2022-08-01T04:57:54;19.50;99.90
22288;DHT22;11312;51.464;6.968;2022-08-01T05:00:20;19.50;99.90
22288;DHT22;11312;51.464;6.968;2022-08-01T05:02:45;19.50;99.90
22288;DHT22;11312;51.464;6.968;2022-08-01T05:05:12;19.50;99.90
22288;DHT22;11312;51.464;6.968;2022-08-01T05:07:37;19.50;99.90
22288;DHT22;11312;51.464;6.968;2022-08-01T05:10:05;19.50;99.90
22288;DHT22;11312;51.464;6.968;2022-08-01T05:12:31;19.40;99.90
22288;DHT22;11312;51.464;6.968;2022-08-01T05:14:58;19.50;99.90
22288;DHT22;11312;51.464;6.968;2022-08-01T05:17:24;19.40;99.90
22288;DHT22;11312;51.464;6.968;2022-08-01T05:19:49;19.40;99.90
22288;DHT22;11312;51.464;6.968;2022-08-01T05:22:15;19.40;99.90
22288;DHT22;11312;51.464;6.968;2022-08-01T05:24:41;19.50;99.90
22288;DHT22;11312;51.464;6.968;2022-08-01T05:27:07;19.50;99.90
22288;DHT22;11312;51.464;6.968;2022-08-01T05:29:34;19.50;99.90
22288;DHT22;11312;51.464;6.968;2022-08-01T05:31:59;19.60;99.90
22288;DHT22;11312;51.464;6.968;2022-08-01T05:34:26;19.50;99.90
22288;DHT22;11312;51.464;6.968;2022-08-01T05:36:52;19.60;99.90
22288;DHT22;11312;51.464;6.968;2022-08-01T05:39:18;19.60;99.90
22288;DHT22;11312;51.464;6.968;2022-08-01T05:41:44;19.70;99.90
22288;DHT22;11312;51.464;6.968;2022-08-01T05:44:10;19.80;99.90
22288;DHT22;11312;51.464;6.968;2022-08-01T05:46:36;19.70;99.90
22288;DHT22;11312;51.464;6.968;2022-08-01T05:49:03;19.90;99.90
22288;DHT22;11312;51.464;6.968;2022-08-01T05:51:29;19.90;99.90
22288;DHT22;11312;51.464;6.968;2022-08-01T05:53:56;19.80;99.90
22288;DHT22;11312;51.464;6.968;2022-08-01T05:56:22;19.70;99.90
22288;DHT22;11312;51.464;6.968;2022-08-01T05:58:49;19.60;99.90
22288;DHT22;11312;51.464;6.968;2022-08-01T06:01:15;19.50;99.90
22288;DHT22;11312;51.464;6.968;2022-08-01T06:03:41;19.60;99.90
22288;DHT22;11312;51.464;6.968;2022-08-01T06:06:06;19.60;99.90
22288;DHT22;11312;51.464;6.968;2022-08-01T06:08:32;19.70;99.90
22288;DHT22;11312;51.464;6.968;2022-08-01T06:10:58;19.70;99.90
22288;DHT22;11312;51.464;6.968;2022-08-01T06:13:23;19.70;99.90
22288;DHT22;11312;51.464;6.968;2022-08-01T06:15:49;19.90;99.90
22288;DHT22;11312;51.464;6.968;2022-08-01T06:18:15;19.90;99.90
22288;DHT22;11312;51.464;6.968;2022-08-01T06:20:41;20.10;99.90
22288;DHT22;11312;51.464;6.968;2022-08-01T06:23:08;19.90;99.90
22288;DHT22;11312;51.464;6.968;2022-08-01T06:25:33;20.00;99.90
22288;DHT22;11312;51.464;6.968;2022-08-01T06:27:59;20.00;99.90
22288;DHT22;11312;51.464;6.968;2022-08-01T06:30:26;19.90;99.90
22288;DHT22;11312;51.464;6.968;2022-08-01T06:32:51;19.90;99.90
22288;DHT22;11312;51.464;6.968;2022-08-01T06:35:17;19.90;99.90
22288;DHT22;11312;51.464;6.968;2022-08-01T06:37:43;19.90;99.90
22288;DHT22;11312;51.464;6.968;2022-08-01T06:40:11;20.10;99.90
22288;DHT22;11312;51.464;6.968;2022-08-01T06:42:37;20.20;99.90
22288;DHT22;11312;51.464;6.968;2022-08-01T06:45:08;20.20;99.90
22288;DHT22;11312;51.464;6.968;2022-08-01T06:47:35;20.20;99.90
22288;DHT22;11312;51.464;6.968;2022-08-01T06:50:01;20.40;99.90
22288;DHT22;11312;51.464;6.968;2022-08-01T06:52:27;20.40;99.90
22288;DHT22;11312;51.464;6.968;2022-08-01T06:54:53;20.50;99.90
22288;DHT22;11312;51.464;6.968;2022-08-01T06:57:19;20.60;99.90
22288;DHT22;11312;51.464;6.968;2022-08-01T06:59:44;20.80;99.90
22288;DHT22;11312;51.464;6.968;2022-08-01T07:02:10;21.10;99.90
22288;DHT22;11312;51.464;6.968;2022-08-01T07:04:36;21.20;99.90
22288;DHT22;11312;51.464;6.968;2022-08-01T07:07:01;21.20;99.90
22288;DHT22;11312;51.464;6.968;2022-08-01T07:09:28;21.20;99.90
22288;DHT22;11312;51.464;6.968;2022-08-01T07:11:53;21.50;99.90
22288;DHT22;11312;51.464;6.968;2022-08-01T07:14:20;22.20;99.90
22288;DHT22;11312;51.464;6.968;2022-08-01T07:16:46;22.10;99.90
22288;DHT22;11312;51.464;6.968;2022-08-01T07:19:12;21.80;99.90
22288;DHT22;11312;51.464;6.968;2022-08-01T07:21:39;21.50;99.90
22288;DHT22;11312;51.464;6.968;2022-08-01T07:24:09;21.50;99.90
22288;DHT22;11312;51.464;6.968;2022-08-01T07:26:35;21.60;99.90
22288;DHT22;11312;51.464;6.968;2022-08-01T07:29:01;21.60;99.90
22288;DHT22;11312;51.464;6.968;2022-08-01T07:31:26;21.50;99.90
22288;DHT22;11312;51.464;6.968;2022-08-01T07:33:52;21.60;99.90
22288;DHT22;11312;51.464;6.968;2022-08-01T07:36:18;21.60;99.90
22288;DHT22;11312;51.464;6.968;2022-08-01T07:38:45;22.00;99.90
22288;DHT22;11312;51.464;6.968;2022-08-01T07:41:11;22.70;99.90
22288;DHT22;11312;51.464;6.968;2022-08-01T07:43:36;23.40;99.90
22288;DHT22;11312;51.464;6.968;2022-08-01T07:46:04;23.60;99.90
22288;DHT22;11312;51.464;6.968;2022-08-01T07:48:30;23.60;99.90
22288;DHT22;11312;51.464;6.968;2022-08-01T07:50:56;23.40;99.90
22288;DHT22;11312;51.464;6.968;2022-08-01T07:53:21;23.20;99.90
22288;DHT22;11312;51.464;6.968;2022-08-01T07:55:47;22.70;99.90
22288;DHT22;11312;51.464;6.968;2022-08-01T07:58:14;22.40;99.90
22288;DHT22;11312;51.464;6.968;2022-08-01T08:00:39;22.10;99.90
22288;DHT22;11312;51.464;6.968;2022-08-01T08:03:05;22.10;99.90
22288;DHT22;11312;51.464;6.968;2022-08-01T08:05:31;22.70;99.90
22288;DHT22;11312;51.464;6.968;2022-08-01T08:07:58;23.40;99.90
22288;DHT22;11312;51.464;6.968;2022-08-01T08:10:23;23.60;99.90
22288;DHT22;11312;51.464;6.968;2022-08-01T08:12:49;23.20;99.90
22288;DHT22;11312;51.464;6.968;2022-08-01T08:15:15;22.80;99.90
22288;DHT22;11312;51.464;6.968;2022-08-01T08:17:40;22.80;99.90
22288;DHT22;11312;51.464;6.968;2022-08-01T08:20:07;22.60;99.90
22288;DHT22;11312;51.464;6.968;2022-08-01T08:22:33;22.20;99.90
22288;DHT22;11312;51.464;6.968;2022-08-01T08:24:59;22.00;99.90
22288;DHT22;11312;51.464;6.968;2022-08-01T08:27:25;21.60;99.90
22288;DHT22;11312;51.464;6.968;2022-08-01T08:29:51;21.50;99.90
22288;DHT22;11312;51.464;6.968;2022-08-01T08:32:16;21.50;99.90
22288;DHT22;11312;51.464;6.968;2022-08-01T08:34:42;21.80;99.90
22288;DHT22;11312;51.464;6.968;2022-08-01T08:37:08;22.90;99.90
22288;DHT22;11312;51.464;6.968;2022-08-01T08:39:35;23.90;99.90
22288;DHT22;11312;51.464;6.968;2022-08-01T08:42:04;24.60;99.90
22288;DHT22;11312;51.464;6.968;2022-08-01T08:44:31;24.20;99.90
22288;DHT22;11312;51.464;6.968;2022-08-01T08:46:58;23.70;99.90
22288;DHT22;11312;51.464;6.968;2022-08-01T08:49:28;23.70;99.90
22288;DHT22;11312;51.464;6.968;2022-08-01T08:51:58;23.60;99.90
22288;DHT22;11312;51.464;6.968;2022-08-01T08:54:25;23.40;99.90
22288;DHT22;11312;51.464;6.968;2022-08-01T08:56:52;23.40;99.90
22288;DHT22;11312;51.464;6.968;2022-08-01T08:59:18;23.40;99.90
22288;DHT22;11312;51.464;6.968;2022-08-01T09:01:44;23.50;99.90
22288;DHT22;11312;51.464;6.968;2022-08-01T09:04:11;23.60;99.90
22288;DHT22;11312;51.464;6.968;2022-08-01T09:06:38;23.80;99.90
22288;DHT22;11312;51.464;6.968;2022-08-01T09:09:05;23.70;99.90
22288;DHT22;11312;51.464;6.968;2022-08-01T09:11:31;23.90;99.90
22288;DHT22;11312;51.464;6.968;2022-08-01T09:14:15;23.80;99.90
22288;DHT22;11312;51.464;6.968;2022-08-01T09:16:59;24.40;99.90
22288;DHT22;11312;51.464;6.968;2022-08-01T09:19:34;24.00;99.90
22288;DHT22;11312;51.464;6.968;2022-08-01T09:22:04;23.40;99.90
22288;DHT22;11312;51.464;6.968;2022-08-01T09:24:30;24.10;99.90
22288;DHT22;11312;51.464;6.968;2022-08-01T09:26:57;24.90;99.90
22288;DHT22;11312;51.464;6.968;2022-08-01T09:29:28;25.50;99.90
22288;DHT22;11312;51.464;6.968;2022-08-01T09:31:55;25.90;99.90
22288;DHT22;11312;51.464;6.968;2022-08-01T09:34:27;25.90;99.90
22288;DHT22;11312;51.464;6.968;2022-08-01T09:36:58;26.20;99.90
22288;DHT22;11312;51.464;6.968;2022-08-01T09:39:30;26.60;99.90
22288;DHT22;11312;51.464;6.968;2022-08-01T09:41:58;26.50;99.90
22288;DHT22;11312;51.464;6.968;2022-08-01T09:44:41;26.20;99.90
22288;DHT22;11312;51.464;6.968;2022-08-01T09:47:07;26.10;99.90
22288;DHT22;11312;51.464;6.968;2022-08-01T09:49:38;25.40;99.90
22288;DHT22;11312;51.464;6.968;2022-08-01T09:52:15;24.80;99.90
22288;DHT22;11312;51.464;6.968;2022-08-01T09:54:43;24.60;99.90
22288;DHT22;11312;51.464;6.968;2022-08-01T09:57:14;24.70;99.90
22288;DHT22;11312;51.464;6.968;2022-08-01T09:59:45;24.20;99.90
22288;DHT22;11312;51.464;6.968;2022-08-01T10:02:13;24.00;99.90
22288;DHT22;11312;51.464;6.968;2022-08-01T10:04:48;23.50;99.90
22288;DHT22;11312;51.464;6.968;2022-08-01T10:07:14;23.20;99.90
22288;DHT22;11312;51.464;6.968;2022-08-01T10:09:44;22.90;99.90
22288;DHT22;11312;51.464;6.968;2022-08-01T10:12:12;23.00;99.90
22288;DHT22;11312;51.464;6.968;2022-08-01T10:14:39;23.00;99.90
22288;DHT22;11312;51.464;6.968;2022-08-01T10:17:08;23.10;99.90
22288;DHT22;11312;51.464;6.968;2022-08-01T10:19:35;24.60;99.90
22288;DHT22;11312;51.464;6.968;2022-08-01T10:22:07;25.40;99.90
22288;DHT22;11312;51.464;6.968;2022-08-01T10:24:36;25.80;99.90
22288;DHT22;11312;51.464;6.968;2022-08-01T10:27:06;25.20;99.90
22288;DHT22;11312;51.464;6.968;2022-08-01T10:29:58;24.70;99.90
22288;DHT22;11312;51.464;6.968;2022-08-01T10:32:23;24.20;99.90
22288;DHT22;11312;51.464;6.968;2022-08-01T10:34:52;23.80;99.90
22288;DHT22;11312;51.464;6.968;2022-08-01T10:37:18;23.60;99.90
22288;DHT22;11312;51.464;6.968;2022-08-01T10:39:44;23.50;99.90
22288;DHT22;11312;51.464;6.968;2022-08-01T10:42:11;23.40;99.90
22288;DHT22;11312;51.464;6.968;2022-08-01T10:44:38;23.40;99.90
22288;DHT22;11312;51.464;6.968;2022-08-01T10:47:17;23.40;99.90
22288;DHT22;11312;51.464;6.968;2022-08-01T10:49:58;23.40;99.90
22288;DHT22;11312;51.464;6.968;2022-08-01T10:52:25;23.70;99.90
22288;DHT22;11312;51.464;6.968;2022-08-01T10:55:05;25.20;99.90
22288;DHT22;11312;51.464;6.968;2022-08-01T10:57:47;26.60;99.90
22288;DHT22;11312;51.464;6.968;2022-08-01T11:00:22;27.10;99.90
22288;DHT22;11312;51.464;6.968;2022-08-01T11:03:14;28.00;99.90
22288;DHT22;11312;51.464;6.968;2022-08-01T11:05:42;27.20;99.90
22288;DHT22;11312;51.464;6.968;2022-08-01T11:08:27;26.10;99.90
22288;DHT22;11312;51.464;6.968;2022-08-01T11:11:00;25.00;99.90
22288;DHT22;11312;51.464;6.968;2022-08-01T11:16:36;24.20;99.90
22288;DHT22;11312;51.464;6.968;2022-08-01T11:19:03;23.90;99.90
22288;DHT22;11312;51.464;6.968;2022-08-01T11:22:05;23.50;99.90
22288;DHT22;11312;51.464;6.968;2022-08-01T11:27:31;24.80;99.90
22288;DHT22;11312;51.464;6.968;2022-08-01T11:32:55;24.40;99.90
22288;DHT22;11312;51.464;6.968;2022-08-01T11:35:25;24.40;99.90
22288;DHT22;11312;51.464;6.968;2022-08-01T11:37:53;24.90;99.90
22288;DHT22;11312;51.464;6.968;2022-08-01T11:40:25;25.40;99.90
22288;DHT22;11312;51.464;6.968;2022-08-01T11:45:52;27.40;99.90
22288;DHT22;11312;51.464;6.968;2022-08-01T11:48:22;27.50;99.90
22288;DHT22;11312;51.464;6.968;2022-08-01T11:50:50;27.90;1.00
22288;DHT22;11312;51.464;6.968;2022-08-01T11:53:16;27.50;99.90
22288;DHT22;11312;51.464;6.968;2022-08-01T11:55:48;26.60;99.90
22288;DHT22;11312;51.464;6.968;2022-08-01T11:58:16;25.90;1.00
22288;DHT22;11312;51.464;6.968;2022-08-01T12:00:53;25.50;99.90
22288;DHT22;11312;51.464;6.968;2022-08-01T12:03:30;25.00;99.90
22288;DHT22;11312;51.464;6.968;2022-08-01T12:05:58;25.80;1.00
22288;DHT22;11312;51.464;6.968;2022-08-01T12:08:28;27.00;1.00
22288;DHT22;11312;51.464;6.968;2022-08-01T12:10:54;27.70;1.00
22288;DHT22;11312;51.464;6.968;2022-08-01T12:13:20;27.20;1.00
22288;DHT22;11312;51.464;6.968;2022-08-01T12:15:47;26.30;1.00
22288;DHT22;11312;51.464;6.968;2022-08-01T12:18:13;25.60;1.00
22288;DHT22;11312;51.464;6.968;2022-08-01T12:20:41;25.70;1.00
22288;DHT22;11312;51.464;6.968;2022-08-01T12:23:14;26.00;1.00
22288;DHT22;11312;51.464;6.968;2022-08-01T12:25:40;26.20;99.90
22288;DHT22;11312;51.464;6.968;2022-08-01T12:28:08;26.00;1.00
22288;DHT22;11312;51.464;6.968;2022-08-01T12:30:35;26.00;1.00
22288;DHT22;11312;51.464;6.968;2022-08-01T12:33:03;26.50;99.90
22288;DHT22;11312;51.464;6.968;2022-08-01T12:35:30;26.00;1.00
22288;DHT22;11312;51.464;6.968;2022-08-01T12:38:01;25.60;99.90
22288;DHT22;11312;51.464;6.968;2022-08-01T12:40:33;25.20;99.90
22288;DHT22;11312;51.464;6.968;2022-08-01T12:43:05;25.40;1.00
22288;DHT22;11312;51.464;6.968;2022-08-01T12:45:36;26.20;1.00
22288;DHT22;11312;51.464;6.968;2022-08-01T12:48:08;26.80;99.90
22288;DHT22;11312;51.464;6.968;2022-08-01T12:50:37;26.40;1.00
22288;DHT22;11312;51.464;6.968;2022-08-01T12:53:03;25.90;99.90
22288;DHT22;11312;51.464;6.968;2022-08-01T12:55:29;25.30;1.00
22288;DHT22;11312;51.464;6.968;2022-08-01T12:58:08;25.00;96.60
22288;DHT22;11312;51.464;6.968;2022-08-01T13:00:34;24.90;93.30
22288;DHT22;11312;51.464;6.968;2022-08-01T13:03:06;24.70;99.90
22288;DHT22;11312;51.464;6.968;2022-08-01T13:08:20;26.30;99.90
22288;DHT22;11312;51.464;6.968;2022-08-01T13:10:46;26.50;99.90
22288;DHT22;11312;51.464;6.968;2022-08-01T13:13:13;26.70;18.30
22288;DHT22;11312;51.464;6.968;2022-08-01T13:15:41;26.80;1.00
22288;DHT22;11312;51.464;6.968;2022-08-01T13:21:15;27.80;99.90
22288;DHT22;11312;51.464;6.968;2022-08-01T13:27:01;27.70;99.90
22288;DHT22;11312;51.464;6.968;2022-08-01T13:31:55;26.20;99.90
22288;DHT22;11312;51.464;6.968;2022-08-01T13:34:32;25.90;99.90
22288;DHT22;11312;51.464;6.968;2022-08-01T13:36:58;25.90;99.90
22288;DHT22;11312;51.464;6.968;2022-08-01T13:39:23;25.60;99.90
22288;DHT22;11312;51.464;6.968;2022-08-01T13:42:13;25.60;99.90
22288;DHT22;11312;51.464;6.968;2022-08-01T13:44:40;25.90;99.90
22288;DHT22;11312;51.464;6.968;2022-08-01T13:47:06;26.70;99.90
22288;DHT22;11312;51.464;6.968;2022-08-01T13:49:32;27.30;99.90
22288;DHT22;11312;51.464;6.968;2022-08-01T13:51:59;27.80;99.90
22288;DHT22;11312;51.464;6.968;2022-08-01T13:54:25;28.40;99.90
22288;DHT22;11312;51.464;6.968;2022-08-01T13:56:51;28.30;99.90
22288;DHT22;11312;51.464;6.968;2022-08-01T13:59:17;28.10;99.90
22288;DHT22;11312;51.464;6.968;2022-08-01T14:01:43;27.80;99.90
22288;DHT22;11312;51.464;6.968;2022-08-01T14:04:09;27.40;99.90
22288;DHT22;11312;51.464;6.968;2022-08-01T14:06:35;26.60;99.90
22288;DHT22;11312;51.464;6.968;2022-08-01T14:09:02;26.40;99.90
22288;DHT22;11312;51.464;6.968;2022-08-01T14:11:27;26.00;99.90
22288;DHT22;11312;51.464;6.968;2022-08-01T14:13:53;26.00;1.00
22288;DHT22;11312;51.464;6.968;2022-08-01T14:16:19;26.00;99.90
22288;DHT22;11312;51.464;6.968;2022-08-01T14:18:45;25.70;99.90
22288;DHT22;11312;51.464;6.968;2022-08-01T14:21:10;25.40;1.00
22288;DHT22;11312;51.464;6.968;2022-08-01T14:23:36;25.00;99.90
22288;DHT22;11312;51.464;6.968;2022-08-01T14:26:02;24.90;1.00
22288;DHT22;11312;51.464;6.968;2022-08-01T14:28:27;25.00;29.20
22288;DHT22;11312;51.464;6.968;2022-08-01T14:30:54;24.90;99.90
22288;DHT22;11312;51.464;6.968;2022-08-01T14:33:21;24.80;1.00
22288;DHT22;11312;51.464;6.968;2022-08-01T14:35:47;24.90;99.90
22288;DHT22;11312;51.464;6.968;2022-08-01T14:38:13;25.20;1.00
22288;DHT22;11312;51.464;6.968;2022-08-01T14:40:38;25.50;1.00
22288;DHT22;11312;51.464;6.968;2022-08-01T14:43:06;25.50;1.00
22288;DHT22;11312;51.464;6.968;2022-08-01T14:45:32;25.50;99.90
22288;DHT22;11312;51.464;6.968;2022-08-01T14:47:58;25.30;99.90
22288;DHT22;11312;51.464;6.968;2022-08-01T14:50:24;25.40;99.90
22288;DHT22;11312;51.464;6.968;2022-08-01T14:52:52;25.40;99.90
22288;DHT22;11312;51.464;6.968;2022-08-01T14:55:18;25.50;99.90
22288;DHT22;11312;51.464;6.968;2022-08-01T14:57:44;25.30;99.90
22288;DHT22;11312;51.464;6.968;2022-08-01T15:00:10;25.60;99.90
22288;DHT22;11312;51.464;6.968;2022-08-01T15:02:39;25.60;99.90
22288;DHT22;11312;51.464;6.968;2022-08-01T15:05:06;25.60;99.90
22288;DHT22;11312;51.464;6.968;2022-08-01T15:07:32;25.40;99.90
22288;DHT22;11312;51.464;6.968;2022-08-01T15:09:58;25.30;99.90
22288;DHT22;11312;51.464;6.968;2022-08-01T15:12:23;25.00;99.90
22288;DHT22;11312;51.464;6.968;2022-08-01T15:14:49;25.00;99.90
22288;DHT22;11312;51.464;6.968;2022-08-01T15:17:19;25.00;99.90
22288;DHT22;11312;51.464;6.968;2022-08-01T15:19:50;24.80;99.90
22288;DHT22;11312;51.464;6.968;2022-08-01T15:22:16;24.60;99.90
22288;DHT22;11312;51.464;6.968;2022-08-01T15:24:42;24.40;99.90
22288;DHT22;11312;51.464;6.968;2022-08-01T15:27:09;24.40;99.90
22288;DHT22;11312;51.464;6.968;2022-08-01T15:29:35;24.50;99.90
22288;DHT22;11312;51.464;6.968;2022-08-01T15:32:03;24.60;99.90
22288;DHT22;11312;51.464;6.968;2022-08-01T15:34:30;24.60;99.90
22288;DHT22;11312;51.464;6.968;2022-08-01T15:36:56;24.60;99.90
22288;DHT22;11312;51.464;6.968;2022-08-01T15:39:22;24.40;99.90
22288;DHT22;11312;51.464;6.968;2022-08-01T15:41:48;24.40;99.90
22288;DHT22;11312;51.464;6.968;2022-08-01T15:44:14;24.40;99.90
22288;DHT22;11312;51.464;6.968;2022-08-01T15:46:40;24.40;99.90
22288;DHT22;11312;51.464;6.968;2022-08-01T15:49:06;24.30;99.90
22288;DHT22;11312;51.464;6.968;2022-08-01T15:51:32;24.30;99.90
22288;DHT22;11312;51.464;6.968;2022-08-01T15:53:58;24.10;99.90
22288;DHT22;11312;51.464;6.968;2022-08-01T15:56:29;24.10;1.00
22288;DHT22;11312;51.464;6.968;2022-08-01T15:58:55;24.00;50.90
22288;DHT22;11312;51.464;6.968;2022-08-01T16:01:21;24.00;99.90
22288;DHT22;11312;51.464;6.968;2022-08-01T16:03:47;24.20;99.90
22288;DHT22;11312;51.464;6.968;2022-08-01T16:06:13;24.30;99.90
22288;DHT22;11312;51.464;6.968;2022-08-01T16:08:38;24.30;99.90
22288;DHT22;11312;51.464;6.968;2022-08-01T16:11:04;24.30;99.90
22288;DHT22;11312;51.464;6.968;2022-08-01T16:13:30;24.30;99.90
22288;DHT22;11312;51.464;6.968;2022-08-01T16:15:55;24.40;99.90